createdAt,value
2018-02-07T00:02:17.077Z,52.80
2018-02-07T00:04:45.744Z,49.63
2018-02-07T00:07:14.137Z,46.93
2018-02-07T00:09:43.609Z,56.37
2018-02-07T00:12:12.014Z,51.90
2018-02-07T00:14:40.683Z,51.03
2018-02-07T00:17:09.406Z,47.70
2018-02-07T00:19:38.073Z,57.47
2018-02-07T00:22:06.643Z,62.77
2018-02-07T00:24:35.929Z,41.10
2018-02-07T00:27:04.312Z,46.10
2018-02-07T00:29:32.977Z,51.60
2018-02-07T00:32:01.637Z,51.30
2018-02-07T00:34:30.073Z,47.13
2018-02-07T00:36:58.670Z,48.87
2018-02-07T00:39:27.788Z,58.23
2018-02-07T00:41:56.194Z,63.33
2018-02-07T00:44:24.660Z,50.80
2018-02-07T00:46:53.096Z,43.80
2018-02-07T00:49:21.786Z,54.47
2018-02-07T00:51:50.178Z,52.90
2018-02-07T00:54:19.326Z,59.00
2018-02-07T00:56:47.981Z,49.15
2018-02-07T00:59:16.364Z,46.70
2018-02-07T01:01:45.786Z,65.20
2018-02-07T01:04:14.220Z,50.93
2018-02-07T01:06:42.766Z,61.00
2018-02-07T01:09:11.422Z,51.33
2018-02-07T01:11:39.822Z,58.93
2018-02-07T01:14:08.316Z,48.90
2018-02-07T01:16:36.689Z,53.63
2018-02-07T01:19:05.065Z,64.83
2018-02-07T01:21:33.677Z,43.07
2018-02-07T01:24:02.821Z,49.77
2018-02-07T01:26:31.201Z,58.77
2018-02-07T01:28:59.859Z,51.13
2018-02-07T01:31:28.509Z,58.63
2018-02-07T01:33:57.869Z,53.60
2018-02-07T01:36:26.554Z,60.92
2018-02-07T01:38:54.936Z,62.65
2018-02-07T01:41:23.591Z,58.67
2018-02-07T01:43:52.013Z,61.17
2018-02-07T01:46:20.663Z,51.77
2018-02-07T01:48:50.885Z,52.72
2018-02-07T01:51:20.319Z,60.35
2018-02-07T01:53:49.003Z,70.97
2018-02-07T01:56:17.850Z,67.07
2018-02-07T01:58:46.251Z,59.53
2018-02-07T02:01:14.845Z,63.67
2018-02-07T02:03:43.226Z,62.30
2018-02-07T02:06:11.926Z,55.77
2018-02-07T02:08:40.306Z,50.67
2018-02-07T02:11:08.684Z,56.00
2018-02-07T02:13:37.348Z,53.58
2018-02-07T02:16:05.998Z,56.00
2018-02-07T02:18:34.378Z,62.17
2018-02-07T02:21:02.921Z,62.93
2018-02-07T02:23:31.577Z,74.43
2018-02-07T02:26:00.209Z,61.00
2018-02-07T02:28:28.881Z,69.25
2018-02-07T02:30:58.030Z,69.63
2018-02-07T02:33:26.822Z,83.37
2018-02-07T02:36:06.343Z,70.10
2018-02-07T02:38:35.777Z,86.60
2018-02-07T02:41:04.166Z,88.57
2018-02-07T02:43:32.591Z,91.17
2018-02-07T02:46:01.299Z,83.40
2018-02-07T02:48:29.963Z,73.30
2018-02-07T02:50:59.384Z,82.85
2018-02-07T02:53:28.601Z,77.10
2018-02-07T02:55:57.465Z,80.73
2018-02-07T02:58:25.902Z,76.77
2018-02-07T03:00:55.057Z,77.43
2018-02-07T03:03:24.472Z,71.80
2018-02-07T03:05:53.106Z,93.00
2018-02-07T03:08:21.502Z,73.50
2018-02-07T03:10:50.925Z,92.12
2018-02-07T03:13:19.316Z,79.73
2018-02-07T03:15:47.714Z,87.50
2018-02-07T03:18:16.374Z,87.12
2018-02-07T03:20:44.758Z,81.47
2018-02-07T03:23:13.442Z,82.17
2018-02-07T03:25:41.926Z,84.17
2018-02-07T03:28:10.582Z,75.63
2018-02-07T03:30:39.254Z,90.57
2018-02-07T03:33:08.685Z,89.35
2018-02-07T03:35:37.072Z,102.73
2018-02-07T03:38:05.574Z,87.43
2018-02-07T03:40:34.714Z,101.17
2018-02-07T03:43:03.090Z,97.70
2018-02-07T03:45:32.426Z,101.47
2018-02-07T03:48:01.099Z,108.07
2018-02-07T03:50:29.757Z,93.73
2018-02-07T03:52:59.189Z,86.65
2018-02-07T03:55:27.841Z,106.43
2018-02-07T03:57:56.550Z,97.00
2018-02-07T04:00:25.661Z,114.53
2018-02-07T04:02:54.201Z,93.97
2018-02-07T04:05:22.809Z,97.33
2018-02-07T04:07:51.201Z,81.90
2018-02-07T04:10:19.861Z,92.30
2018-02-07T04:12:48.861Z,97.67
2018-02-07T04:15:17.341Z,91.28
2018-02-07T04:17:45.989Z,83.35
2018-02-07T04:20:14.373Z,102.37
2018-02-07T04:22:42.764Z,96.03
2018-02-07T04:25:11.400Z,91.37
2018-02-07T04:27:40.356Z,90.97
2018-02-07T04:30:08.748Z,115.47
2018-02-07T04:32:37.406Z,104.65
2018-02-07T04:35:06.820Z,95.85
2018-02-07T04:37:35.486Z,101.13
2018-02-07T04:40:04.900Z,98.87
2018-02-07T04:42:33.276Z,95.67
2018-02-07T04:45:01.695Z,92.67
2018-02-07T04:47:30.949Z,101.03
2018-02-07T04:49:59.338Z,101.63
2018-02-07T04:52:27.725Z,114.87
2018-02-07T04:54:56.189Z,102.00
2018-02-07T04:57:24.573Z,118.43
2018-02-07T04:59:53.394Z,107.07
2018-02-07T05:02:22.062Z,104.10
2018-02-07T05:04:50.511Z,99.93
2018-02-07T05:07:18.897Z,101.00
2018-02-07T05:09:47.325Z,100.63
2018-02-07T05:12:15.985Z,108.28
2018-02-07T05:14:44.427Z,113.77
2018-02-07T05:17:13.841Z,100.68
2018-02-07T05:19:42.507Z,107.03
2018-02-07T05:22:11.053Z,99.20
2018-02-07T05:24:39.501Z,94.20
2018-02-07T05:27:07.943Z,89.63
2018-02-07T05:29:37.596Z,95.97
2018-02-07T05:32:06.581Z,114.57
2018-02-07T05:34:35.261Z,118.20
2018-02-07T05:37:03.780Z,98.47
2018-02-07T05:39:33.147Z,120.37
2018-02-07T05:42:02.437Z,106.30
2018-02-07T05:44:31.131Z,111.45
2018-02-07T05:47:00.465Z,110.83
2018-02-07T05:49:28.949Z,114.63
2018-02-07T05:51:57.624Z,105.18
2018-02-07T05:54:26.022Z,100.10
2018-02-07T05:56:54.862Z,115.35
2018-02-07T05:59:23.260Z,107.50
2018-02-07T06:01:51.806Z,101.53
2018-02-07T06:04:20.185Z,98.27
2018-02-07T06:06:50.014Z,118.67
2018-02-07T06:09:19.238Z,102.57
2018-02-07T06:11:47.928Z,98.97
2018-02-07T06:14:17.094Z,110.13
2018-02-07T06:16:45.146Z,109.97
2018-02-07T06:19:14.522Z,99.77
2018-02-07T06:21:43.950Z,96.72
2018-02-07T06:24:12.614Z,108.20
2018-02-07T06:26:41.026Z,95.30
2018-02-07T06:29:09.438Z,110.77
2018-02-07T06:31:38.102Z,113.43
2018-02-07T06:34:06.782Z,97.32
2018-02-07T06:36:35.182Z,107.87
2018-02-07T06:39:03.501Z,97.62
2018-02-07T06:41:32.938Z,118.45
2018-02-07T06:44:01.405Z,94.83
2018-02-07T06:46:30.605Z,106.30
2018-02-07T06:48:59.327Z,102.07
2018-02-07T06:51:28.023Z,94.93
2018-02-07T06:53:57.005Z,88.90
2018-02-07T06:56:26.153Z,97.83
2018-02-07T06:58:54.833Z,111.80
2018-02-07T07:01:23.399Z,103.70
2018-02-07T07:03:52.801Z,114.77
2018-02-07T07:06:22.276Z,106.85
2018-02-07T07:08:52.449Z,106.47
2018-02-07T07:11:21.155Z,107.30
2018-02-07T07:13:49.814Z,101.63
2018-02-07T07:16:18.949Z,108.78
2018-02-07T07:18:47.332Z,93.47
2018-02-07T07:21:16.008Z,104.20
2018-02-07T07:23:44.421Z,113.77
2018-02-07T07:26:12.806Z,105.13
2018-02-07T07:28:41.202Z,105.87
2018-02-07T07:31:09.598Z,111.03
2018-02-07T07:33:37.982Z,95.00
2018-02-07T07:36:06.654Z,107.50
2018-02-07T07:38:35.318Z,106.05
2018-02-07T07:41:03.940Z,93.47
2018-02-07T07:43:32.346Z,101.53
2018-02-07T07:46:00.966Z,106.37
2018-02-07T07:48:29.349Z,108.83
2018-02-07T07:50:58.042Z,110.68
2018-02-07T07:53:26.725Z,98.80
2018-02-07T07:55:55.097Z,116.83
2018-02-07T07:58:23.773Z,102.65
2018-02-07T08:00:52.297Z,103.23
2018-02-07T08:03:22.185Z,100.87
2018-02-07T08:05:50.869Z,114.97
2018-02-07T08:08:19.538Z,109.95
2018-02-07T08:10:47.925Z,108.40
2018-02-07T08:13:16.345Z,105.17
2018-02-07T08:15:45.013Z,106.60
2018-02-07T08:18:13.669Z,98.35
2018-02-07T08:20:42.073Z,113.27
2018-02-07T08:23:10.741Z,101.38
2018-02-07T08:25:39.152Z,102.50
2018-02-07T08:28:07.541Z,98.63
2018-02-07T08:30:36.688Z,98.70
2018-02-07T08:33:06.377Z,102.10
2018-02-07T08:35:35.073Z,118.00
2018-02-07T08:38:04.168Z,81.70
2018-02-07T08:40:33.586Z,92.23
2018-02-07T08:43:02.200Z,97.67
2018-02-07T08:45:30.735Z,89.37
2018-02-07T08:47:59.119Z,96.73
2018-02-07T08:50:27.810Z,102.30
2018-02-07T08:52:56.462Z,81.65
2018-02-07T08:55:25.126Z,94.13
2018-02-07T08:57:53.682Z,92.27
2018-02-07T09:00:22.058Z,94.00
2018-02-07T09:02:50.437Z,100.73
2018-02-07T09:05:19.122Z,100.10
2018-02-07T09:07:47.777Z,80.47
2018-02-07T09:10:16.340Z,94.23
2018-02-07T09:12:44.733Z,86.50
2018-02-07T09:15:14.145Z,82.57
2018-02-07T09:17:43.777Z,102.12
2018-02-07T09:20:12.489Z,93.30
2018-02-07T09:22:41.629Z,84.30
2018-02-07T09:25:10.017Z,84.10
2018-02-07T09:27:38.409Z,101.07
2018-02-07T09:30:07.065Z,108.47
2018-02-07T09:32:35.958Z,85.50
2018-02-07T09:35:05.057Z,95.25
2018-02-07T09:37:33.712Z,87.50
2018-02-07T09:40:02.095Z,98.20
2018-02-07T09:42:30.589Z,94.03
2018-02-07T09:44:58.969Z,91.97
2018-02-07T09:47:28.397Z,82.53
2018-02-07T09:49:56.781Z,127.40
2018-02-07T09:52:25.433Z,96.95
2018-02-07T09:54:54.071Z,83.63
2018-02-07T09:57:23.329Z,69.93
2018-02-07T09:59:51.857Z,107.00
2018-02-07T10:02:21.012Z,113.93
2018-02-07T10:04:49.673Z,84.65
2018-02-07T10:07:18.053Z,87.10
2018-02-07T10:09:46.442Z,104.23
2018-02-07T10:12:15.758Z,81.70
2018-02-07T10:14:44.206Z,105.07
2018-02-07T10:17:13.588Z,89.93
2018-02-07T10:19:42.106Z,70.57
2018-02-07T10:22:10.486Z,81.30
2018-02-07T10:24:38.939Z,65.60
2018-02-07T10:27:07.426Z,66.73
2018-02-07T10:29:35.814Z,90.37
2018-02-07T10:32:04.207Z,72.63
2018-02-07T10:34:32.593Z,86.27
2018-02-07T10:37:00.969Z,95.77
2018-02-07T10:39:29.657Z,80.80
2018-02-07T10:41:58.309Z,75.17
2018-02-07T10:44:26.699Z,79.00
2018-02-07T10:46:55.216Z,88.73
2018-02-07T10:49:23.897Z,77.77
2018-02-07T10:51:52.279Z,83.43
2018-02-07T10:54:20.664Z,82.90
2018-02-07T10:56:49.337Z,90.32
2018-02-07T10:59:17.719Z,81.60
2018-02-07T11:01:46.201Z,96.80
2018-02-07T11:04:14.851Z,80.20
2018-02-07T11:06:43.477Z,77.03
2018-02-07T11:09:12.502Z,90.53
2018-02-07T11:11:40.902Z,95.23
2018-02-07T11:14:09.278Z,80.73
2018-02-07T11:16:37.674Z,93.20
2018-02-07T11:19:06.242Z,86.70
2018-02-07T11:21:34.634Z,75.97
2018-02-07T11:24:03.010Z,87.70
2018-02-07T11:26:31.509Z,93.47
2018-02-07T11:28:59.934Z,92.77
2018-02-07T11:31:28.338Z,93.13
2018-02-07T11:33:56.713Z,88.93
2018-02-07T11:36:25.377Z,103.68
2018-02-07T11:38:55.117Z,84.62
2018-02-07T11:41:23.513Z,90.53
2018-02-07T11:43:51.890Z,97.30
2018-02-07T11:46:20.285Z,83.87
2018-02-07T11:48:49.429Z,85.00
2018-02-07T11:51:17.833Z,107.23
2018-02-07T11:53:46.495Z,101.28
2018-02-07T11:56:14.897Z,77.90
2018-02-07T11:58:43.474Z,99.23
2018-02-07T12:01:11.861Z,91.37
2018-02-07T12:03:40.244Z,76.13
2018-02-07T12:06:10.172Z,100.93
2018-02-07T12:08:38.860Z,93.75
2018-02-07T12:11:08.037Z,76.90
2018-02-07T12:13:36.418Z,73.67
2018-02-07T12:16:04.807Z,95.27
2018-02-07T12:18:34.034Z,84.82
2018-02-07T12:21:02.474Z,88.90
2018-02-07T12:23:30.941Z,106.33
2018-02-07T12:25:59.598Z,101.72
2018-02-07T12:28:27.936Z,93.20
2018-02-07T12:30:56.194Z,111.77
2018-02-07T12:33:25.450Z,84.33
2018-02-07T12:35:53.933Z,96.80
2018-02-07T12:38:22.454Z,93.00
2018-02-07T12:40:50.845Z,98.13
2018-02-07T12:43:19.986Z,96.17
2018-02-07T12:45:48.653Z,95.87
2018-02-07T12:48:17.041Z,97.27
2018-02-07T12:50:45.447Z,92.43
2018-02-07T12:53:13.826Z,93.77
2018-02-07T12:55:42.225Z,87.67
2018-02-07T12:58:10.987Z,85.60
2018-02-07T13:00:39.378Z,81.03
2018-02-07T13:03:09.392Z,87.80
2018-02-07T13:05:37.809Z,85.37
2018-02-07T13:08:06.740Z,91.93
2018-02-07T13:10:36.136Z,90.73
2018-02-07T13:13:04.804Z,92.20
2018-02-07T13:15:33.182Z,98.07
2018-02-07T13:18:02.622Z,93.97
2018-02-07T13:20:31.324Z,78.85
2018-02-07T13:22:59.992Z,85.78
2018-02-07T13:25:28.396Z,87.03
2018-02-07T13:27:57.664Z,94.93
2018-02-07T13:30:26.643Z,85.87
2018-02-07T13:32:55.746Z,85.33
2018-02-07T13:35:24.134Z,86.50
2018-02-07T13:37:52.534Z,99.90
2018-02-07T13:40:21.694Z,92.10
2018-02-07T13:42:50.173Z,88.10
2018-02-07T13:45:19.018Z,87.45
2018-02-07T13:47:47.682Z,89.87
2018-02-07T13:50:16.082Z,95.20
2018-02-07T13:52:44.754Z,85.53
2018-02-07T13:55:13.896Z,86.93
2018-02-07T13:57:42.555Z,86.32
2018-02-07T14:00:10.941Z,91.60
2018-02-07T14:02:40.269Z,85.03
2018-02-07T14:05:09.013Z,87.68
2018-02-07T14:07:37.673Z,82.65
2018-02-07T14:10:06.297Z,90.23
2018-02-07T14:12:35.695Z,102.07
2018-02-07T14:15:03.749Z,91.00
2018-02-07T14:17:32.355Z,86.70
2018-02-07T14:20:00.741Z,90.53
2018-02-07T14:22:29.441Z,104.07
2018-02-07T14:24:58.095Z,87.30
2018-02-07T14:27:26.492Z,117.37
2018-02-07T14:29:54.888Z,104.73
2018-02-07T14:32:23.292Z,103.83
2018-02-07T14:34:52.453Z,96.90
2018-02-07T14:37:20.966Z,100.87
2018-02-07T14:39:49.654Z,123.30
2018-02-07T14:42:18.614Z,96.93
2018-02-07T14:44:47.002Z,99.37
2018-02-07T14:47:15.462Z,114.47
2018-02-07T14:49:44.880Z,108.60
2018-02-07T14:52:13.546Z,105.90
2018-02-07T14:54:42.202Z,88.07
2018-02-07T14:57:10.698Z,83.47
2018-02-07T14:59:40.110Z,93.15
2018-02-07T15:02:08.771Z,98.50
2018-02-07T15:04:37.166Z,97.90
2018-02-07T15:07:05.641Z,92.43
2018-02-07T15:09:34.174Z,105.53
2018-02-07T15:12:02.841Z,116.40
2018-02-07T15:14:31.237Z,111.87
2018-02-07T15:16:59.630Z,116.20
2018-02-07T15:19:28.289Z,106.28
2018-02-07T15:21:56.965Z,100.72
2018-02-07T15:24:25.353Z,99.60
2018-02-07T15:26:54.261Z,110.90
2018-02-07T15:29:23.281Z,118.03
2018-02-07T15:31:51.725Z,104.00
2018-02-07T15:34:20.205Z,115.33
2018-02-07T15:36:49.360Z,99.40
2018-02-07T15:39:17.915Z,108.63
2018-02-07T15:41:47.995Z,123.80
2018-02-07T15:44:16.501Z,116.50
2018-02-07T15:46:45.660Z,122.32
2018-02-07T15:49:14.101Z,111.40
2018-02-07T15:51:42.701Z,105.17
2018-02-07T15:54:11.088Z,103.93
2018-02-07T15:56:39.475Z,84.37
2018-02-07T15:59:08.142Z,99.53
2018-02-07T16:01:36.544Z,99.03
2018-02-07T16:04:04.632Z,93.03
2018-02-07T16:06:33.295Z,111.20
2018-02-07T16:09:01.686Z,98.17
2018-02-07T16:11:30.334Z,100.93
2018-02-07T16:13:58.959Z,86.83
2018-02-07T16:16:27.688Z,94.87
2018-02-07T16:18:57.730Z,97.15
2018-02-07T16:21:26.285Z,103.00
2018-02-07T16:23:54.774Z,95.10
2018-02-07T16:26:23.161Z,96.13
2018-02-07T16:28:51.723Z,96.33
2018-02-07T16:31:20.373Z,83.47
2018-02-07T16:33:49.534Z,103.17
2018-02-07T16:36:18.189Z,99.73
2018-02-07T16:38:47.613Z,94.70
2018-02-07T16:41:15.989Z,104.13
2018-02-07T16:43:44.589Z,118.03
2018-02-07T16:46:13.057Z,113.43
2018-02-07T16:48:41.437Z,113.73
2018-02-07T16:51:10.100Z,83.47
2018-02-07T16:53:38.512Z,99.37
2018-02-07T16:56:07.180Z,85.80
2018-02-07T16:58:35.569Z,87.77
2018-02-07T17:01:04.235Z,83.33
2018-02-07T17:03:33.649Z,76.65
2018-02-07T17:06:02.313Z,84.07
2018-02-07T17:08:30.518Z,104.57
2018-02-07T17:10:59.030Z,97.87
2018-02-07T17:13:28.570Z,74.53
2018-02-07T17:15:57.024Z,95.47
2018-02-07T17:18:25.482Z,81.90
2018-02-07T17:20:53.920Z,103.93
2018-02-07T17:23:22.890Z,94.28
2018-02-07T17:25:52.322Z,95.40
2018-02-07T17:28:20.706Z,100.33
2018-02-07T17:30:49.398Z,93.20
2018-02-07T17:33:18.059Z,102.18
2018-02-07T17:35:46.721Z,100.40
2018-02-07T17:38:15.380Z,105.57
2018-02-07T17:40:44.053Z,95.80
2018-02-07T17:43:12.485Z,96.50
2018-02-07T17:45:40.867Z,99.60
2018-02-07T17:48:09.261Z,108.37
2018-02-07T17:50:37.645Z,91.27
2018-02-07T17:53:06.049Z,92.83
2018-02-07T17:55:34.527Z,96.07
2018-02-07T17:58:03.021Z,96.57
2018-02-07T18:00:31.681Z,96.53
2018-02-07T18:03:00.351Z,107.22
2018-02-07T18:05:28.820Z,94.97
2018-02-07T18:07:57.239Z,93.03
2018-02-07T18:10:26.409Z,86.90
2018-02-07T18:12:54.805Z,110.03
2018-02-07T18:15:23.200Z,96.83
2018-02-07T18:17:52.424Z,99.57
2018-02-07T18:20:21.010Z,102.87
2018-02-07T18:22:50.446Z,105.63
2018-02-07T18:25:19.106Z,104.87
2018-02-07T18:27:47.618Z,107.17
2018-02-07T18:30:16.722Z,108.78
2018-02-07T18:32:45.106Z,114.23
2018-02-07T18:35:13.530Z,96.13
2018-02-07T18:37:41.925Z,109.37
2018-02-07T18:40:11.350Z,119.77
2018-02-07T18:42:40.010Z,97.20
2018-02-07T18:45:08.674Z,111.33
2018-02-07T18:47:37.537Z,112.27
2018-02-07T18:50:05.935Z,114.33
2018-02-07T18:52:34.605Z,98.37
2018-02-07T18:55:03.273Z,104.83
2018-02-07T18:57:32.089Z,118.10
2018-02-07T19:00:00.625Z,118.07
2018-02-07T19:02:29.429Z,108.72
2018-02-07T19:04:58.097Z,119.95
2018-02-07T19:07:26.481Z,144.50
2018-02-07T19:09:55.156Z,117.45
2018-02-07T19:12:23.551Z,129.73
2018-02-07T19:14:52.220Z,108.15
2018-02-07T19:17:20.881Z,112.22
2018-02-07T19:19:49.187Z,121.87
2018-02-07T19:22:17.572Z,107.77
2018-02-07T19:24:46.237Z,118.55
2018-02-07T19:27:14.914Z,126.13
2018-02-07T19:29:43.582Z,117.30
2018-02-07T19:32:11.974Z,115.00
2018-02-07T19:34:40.485Z,122.47
2018-02-07T19:37:08.958Z,120.97
2018-02-07T19:39:37.631Z,130.37
2018-02-07T19:42:06.142Z,126.60
2018-02-07T19:44:34.707Z,98.97
2018-02-07T19:47:03.374Z,117.47
2018-02-07T19:49:31.773Z,101.57
2018-02-07T19:52:00.378Z,112.60
2018-02-07T19:54:29.173Z,113.30
2018-02-07T19:56:57.837Z,123.30
2018-02-07T19:59:26.389Z,119.93
2018-02-07T20:01:54.776Z,125.40
2018-02-07T20:04:23.167Z,122.37
2018-02-07T20:06:51.827Z,122.25
2018-02-07T20:09:20.291Z,109.40
2018-02-07T20:11:49.716Z,123.10
2018-02-07T20:14:18.051Z,129.10
2018-02-07T20:16:46.451Z,130.67
2018-02-07T20:19:14.886Z,131.87
2018-02-07T20:21:43.552Z,112.65
2018-02-07T20:24:11.944Z,106.73
2018-02-07T20:26:41.098Z,116.77
2018-02-07T20:29:09.754Z,112.12
2018-02-07T20:31:38.146Z,113.57
2018-02-07T20:34:06.798Z,121.57
2018-02-07T20:36:35.965Z,125.10
2018-02-07T20:39:03.688Z,112.57
2018-02-07T20:41:32.098Z,109.77
2018-02-07T20:44:00.538Z,124.00
2018-02-07T20:46:28.945Z,116.67
2018-02-07T20:48:57.610Z,122.47
2018-02-07T20:51:26.313Z,119.35
2018-02-07T20:53:54.980Z,121.57
2018-02-07T20:56:24.173Z,102.23
2018-02-07T20:58:52.947Z,107.00
2018-02-07T21:01:21.381Z,114.67
2018-02-07T21:03:50.041Z,118.53
2018-02-07T21:06:18.671Z,127.80
2018-02-07T21:08:47.343Z,136.57
2018-02-07T21:11:16.521Z,112.87
2018-02-07T21:13:44.896Z,129.97
2018-02-07T21:16:13.564Z,117.67
2018-02-07T21:18:41.943Z,118.33
2018-02-07T21:21:10.332Z,100.67
2018-02-07T21:23:38.718Z,116.60
2018-02-07T21:26:07.514Z,118.27
2018-02-07T21:28:35.902Z,127.20
2018-02-07T21:31:05.054Z,115.63
2018-02-07T21:33:33.726Z,109.93
2018-02-07T21:36:03.166Z,124.12
2018-02-07T21:38:31.554Z,105.07
2018-02-07T21:41:01.526Z,112.83
2018-02-07T21:43:29.638Z,107.17
2018-02-07T21:45:58.302Z,109.93
2018-02-07T21:48:26.977Z,115.78
2018-02-07T21:50:55.365Z,113.23
2018-02-07T21:53:23.753Z,113.93
2018-02-07T21:55:52.418Z,128.35
2018-02-07T21:58:22.458Z,107.73
2018-02-07T22:00:51.017Z,111.85
2018-02-07T22:03:19.613Z,120.03
2018-02-07T22:05:48.265Z,106.73
2018-02-07T22:08:17.697Z,108.53
2018-02-07T22:10:46.361Z,113.65
2018-02-07T22:13:14.757Z,112.10
2018-02-07T22:15:43.141Z,116.33
2018-02-07T22:18:12.545Z,97.55
2018-02-07T22:20:41.201Z,123.57
2018-02-07T22:23:09.611Z,101.47
2018-02-07T22:25:38.385Z,103.00
2018-02-07T22:28:06.981Z,98.87
2018-02-07T22:30:35.633Z,122.22
2018-02-07T22:33:04.161Z,112.77
2018-02-07T22:35:32.917Z,120.70
2018-02-07T22:38:02.337Z,105.73
2018-02-07T22:40:30.996Z,103.17
2018-02-07T22:42:59.659Z,97.50
2018-02-07T22:45:28.138Z,110.97
2018-02-07T22:47:57.592Z,103.23
2018-02-07T22:50:26.250Z,107.18
2018-02-07T22:52:54.910Z,95.38
2018-02-07T22:55:23.306Z,108.37
2018-02-07T22:57:51.690Z,101.93
2018-02-07T23:00:20.906Z,113.03
2018-02-07T23:02:49.336Z,92.67
2018-02-07T23:05:17.727Z,100.63
2018-02-07T23:07:46.114Z,102.30
2018-02-07T23:10:15.574Z,102.95
2018-02-07T23:12:44.410Z,113.00
2018-02-07T23:15:13.085Z,113.28
2018-02-07T23:17:41.702Z,110.83
2018-02-07T23:20:10.097Z,109.60
2018-02-07T23:22:38.481Z,103.37
2018-02-07T23:25:07.367Z,103.67
2018-02-07T23:27:35.783Z,99.47
2018-02-07T23:30:04.366Z,94.37
2018-02-07T23:32:32.845Z,86.13
2018-02-07T23:35:01.251Z,100.93
2018-02-07T23:37:29.741Z,80.90
2018-02-07T23:39:58.407Z,100.95
2018-02-07T23:42:27.088Z,94.27
2018-02-07T23:44:55.593Z,82.80
2018-02-07T23:47:24.097Z,90.20
2018-02-07T23:49:52.768Z,102.50
2018-02-07T23:52:21.144Z,91.70
2018-02-07T23:54:49.521Z,87.83
2018-02-07T23:57:17.934Z,87.53
2018-02-07T23:59:46.772Z,89.60
